createdAt,value
2023-06-17T00:03:35.925Z,19.35
2023-06-17T00:08:38.921Z,19.48
2023-06-17T00:13:43.069Z,19.28
2023-06-17T00:18:45.831Z,19.48
2023-06-17T00:23:48.648Z,19.61
2023-06-17T00:28:52.796Z,19.71
2023-06-17T00:33:55.573Z,19.95
2023-06-17T00:38:58.459Z,19.67
2023-06-17T00:44:02.985Z,19.82
2023-06-17T00:49:06.828Z,19.73
2023-06-17T00:54:10.508Z,19.87
2023-06-17T00:59:15.349Z,19.33
2023-06-17T01:04:18.209Z,19.33
2023-06-17T01:09:26.062Z,19.60
2023-06-17T01:14:32.661Z,19.38
2023-06-17T01:19:36.662Z,19.70
2023-06-17T01:24:41.509Z,19.51
2023-06-17T01:29:48.193Z,19.23
2023-06-17T01:34:57.579Z,19.42
2023-06-17T01:40:07.610Z,19.51
2023-06-17T01:45:11.397Z,19.45
2023-06-17T01:50:19.829Z,19.12
2023-06-17T01:55:24.513Z,19.03
2023-06-17T02:00:27.894Z,19.09
2023-06-17T02:05:34.302Z,19.17
2023-06-17T02:10:38.492Z,19.36
2023-06-17T02:15:43.870Z,19.41
2023-06-17T02:20:48.787Z,19.62
2023-06-17T02:25:53.851Z,19.61
2023-06-17T02:30:56.734Z,19.52
2023-06-17T02:35:59.729Z,18.91
2023-06-17T02:41:03.876Z,18.87
2023-06-17T02:46:06.894Z,19.00
2023-06-17T02:51:10.458Z,19.18
2023-06-17T02:56:14.696Z,19.43
2023-06-17T03:01:18.129Z,19.48
2023-06-17T03:06:22.880Z,19.48
2023-06-17T03:11:29.911Z,19.33
2023-06-17T03:16:36.238Z,19.39
2023-06-17T03:21:42.088Z,19.32
2023-06-17T03:26:47.284Z,19.19
2023-06-17T03:31:51.284Z,19.20
2023-06-17T03:36:54.754Z,19.39
2023-06-17T03:41:59.508Z,19.04
2023-06-17T03:47:03.524Z,18.88
2023-06-17T03:52:08.794Z,18.88
2023-06-17T03:57:13.563Z,19.41
2023-06-17T04:02:16.629Z,19.27
2023-06-17T04:07:19.503Z,18.89
2023-06-17T04:12:23.733Z,19.14
2023-06-17T04:17:26.905Z,19.58
2023-06-17T04:22:29.736Z,19.11
2023-06-17T04:27:34.105Z,19.13
2023-06-17T04:32:40.229Z,19.34
2023-06-17T04:37:50.234Z,19.65
2023-06-17T04:42:54.888Z,19.92
2023-06-17T04:48:05.090Z,20.12
2023-06-17T04:53:08.827Z,20.21
2023-06-17T04:58:15.125Z,20.29
2023-06-17T05:03:31.707Z,20.35
2023-06-17T05:08:34.655Z,20.41
2023-06-17T05:13:40.552Z,20.20
2023-06-17T05:18:44.309Z,20.21
2023-06-17T05:23:47.289Z,20.04
2023-06-17T05:28:52.127Z,20.48
2023-06-17T05:33:55.023Z,20.75
2023-06-17T05:38:57.955Z,20.68
2023-06-17T05:44:02.422Z,20.52
2023-06-17T05:49:06.489Z,20.70
2023-06-17T05:54:09.447Z,20.90
2023-06-17T05:59:14.352Z,21.09
2023-06-17T06:04:19.078Z,21.46
2023-06-17T06:09:22.126Z,21.08
2023-06-17T06:14:26.520Z,20.97
2023-06-17T06:19:30.902Z,21.01
2023-06-17T06:24:33.743Z,20.87
2023-06-17T06:29:39.868Z,21.52
2023-06-17T06:34:42.889Z,21.42
2023-06-17T06:39:45.937Z,21.75
2023-06-17T06:44:50.972Z,22.42
2023-06-17T06:49:54.010Z,22.53
2023-06-17T06:54:56.973Z,22.51
2023-06-17T07:00:01.227Z,22.47
2023-06-17T07:05:05.199Z,22.16
2023-06-17T07:10:14.560Z,21.92
2023-06-17T07:15:19.025Z,21.46
2023-06-17T07:20:24.680Z,22.26
2023-06-17T07:25:27.995Z,22.59
2023-06-17T07:30:32.577Z,23.04
2023-06-17T07:35:35.634Z,23.15
2023-06-17T07:40:38.662Z,23.29
2023-06-17T07:45:43.031Z,23.42
2023-06-17T07:50:46.351Z,23.48
2023-06-17T07:55:49.685Z,22.86
2023-06-17T08:00:53.974Z,22.37
2023-06-17T08:05:58.253Z,22.82
2023-06-17T08:11:01.088Z,22.95
2023-06-17T08:16:05.598Z,23.44
2023-06-17T08:21:08.475Z,23.79
2023-06-17T08:26:12.746Z,24.27
2023-06-17T08:31:18.293Z,24.74
2023-06-17T08:36:21.082Z,24.80
2023-06-17T08:41:23.931Z,24.76
2023-06-17T08:46:29.008Z,25.10
2023-06-17T08:51:32.800Z,24.45
2023-06-17T08:56:37.025Z,24.78
2023-06-17T09:01:45.058Z,24.90
2023-06-17T09:06:48.447Z,25.26
2023-06-17T09:11:53.145Z,24.90
2023-06-17T09:16:57.672Z,24.95
2023-06-17T09:22:07.191Z,25.80
2023-06-17T09:27:21.496Z,25.42
2023-06-17T09:32:25.714Z,25.00
2023-06-17T09:37:28.579Z,24.21
2023-06-17T09:42:32.220Z,25.06
2023-06-17T09:47:38.775Z,25.00
2023-06-17T09:52:42.197Z,25.53
2023-06-17T09:57:46.089Z,25.65
2023-06-17T10:02:50.379Z,26.08
2023-06-17T10:07:55.070Z,26.51
2023-06-17T10:13:01.668Z,26.50
2023-06-17T10:18:09.141Z,26.55
2023-06-17T10:23:12.750Z,26.67
2023-06-17T10:28:16.675Z,26.80
2023-06-17T10:33:28.529Z,27.13
2023-06-17T10:38:34.442Z,26.70
2023-06-17T10:43:38.404Z,26.81
2023-06-17T10:48:42.672Z,26.74
2023-06-17T10:53:50.053Z,26.90
2023-06-17T10:58:55.891Z,28.10
2023-06-17T11:04:08.610Z,27.70
2023-06-17T11:09:11.445Z,27.68
2023-06-17T11:14:14.534Z,28.45
2023-06-17T11:19:18.748Z,27.90
2023-06-17T11:24:21.774Z,27.91
2023-06-17T11:29:25.679Z,28.38
2023-06-17T11:34:33.231Z,28.64
2023-06-17T11:39:39.709Z,28.48
2023-06-17T11:44:42.983Z,29.07
2023-06-17T11:49:47.141Z,28.54
2023-06-17T11:54:50.712Z,28.67
2023-06-17T11:59:54.132Z,28.98
2023-06-17T12:05:02.122Z,29.10
2023-06-17T12:10:05.677Z,28.52
2023-06-17T12:20:19.895Z,28.63
2023-06-17T12:25:24.283Z,28.79
2023-06-17T12:30:27.497Z,28.56
2023-06-17T12:35:31.801Z,29.24
2023-06-17T12:40:34.724Z,29.60
2023-06-17T12:45:43.282Z,29.10
2023-06-17T12:50:47.913Z,29.61
2023-06-17T12:55:51.990Z,29.55
2023-06-17T13:00:55.286Z,29.69
2023-06-17T13:05:59.625Z,29.80
2023-06-17T13:11:02.588Z,30.26
2023-06-17T13:16:05.801Z,30.41
2023-06-17T13:21:10.543Z,30.62
2023-06-17T13:26:13.371Z,30.03
2023-06-17T13:31:16.239Z,29.51
2023-06-17T13:36:20.620Z,30.12
2023-06-17T13:41:23.497Z,29.64
2023-06-17T13:46:26.437Z,28.81
2023-06-17T13:51:30.779Z,25.95
2023-06-17T13:56:33.774Z,26.01
2023-06-17T14:01:36.673Z,25.98
2023-06-17T14:06:41.332Z,24.84
2023-06-17T14:11:44.281Z,20.81
2023-06-17T14:16:47.132Z,21.41
2023-06-17T14:22:00.825Z,22.16
2023-06-17T14:27:29.933Z,22.86
2023-06-17T14:32:33.081Z,23.33
2023-06-17T14:37:37.806Z,23.36
2023-06-17T14:42:41.119Z,23.02
2023-06-17T14:47:44.816Z,22.46
2023-06-17T14:52:50.852Z,22.82
2023-06-17T14:57:54.212Z,22.51
2023-06-17T15:03:00.978Z,22.63
2023-06-17T15:08:06.731Z,23.68
2023-06-17T15:13:09.865Z,23.94
2023-06-17T15:18:13.706Z,24.45
2023-06-17T15:23:17.996Z,24.64
2023-06-17T15:28:20.859Z,24.57
2023-06-17T15:33:24.033Z,24.82
2023-06-17T15:38:28.252Z,24.70
2023-06-17T15:43:31.051Z,23.79
2023-06-17T15:48:35.324Z,23.70
2023-06-17T15:53:39.515Z,23.72
2023-06-17T15:58:42.482Z,23.69
2023-06-17T16:03:46.149Z,23.59
2023-06-17T16:08:50.724Z,23.91
2023-06-17T16:13:53.576Z,23.60
2023-06-17T16:18:58.672Z,23.27
2023-06-17T16:24:03.378Z,21.82
2023-06-17T16:29:06.505Z,21.39
2023-06-17T16:34:09.343Z,21.67
2023-06-17T16:39:13.649Z,22.03
2023-06-17T16:44:16.961Z,21.72
2023-06-17T16:49:20.190Z,21.76
2023-06-17T16:54:24.555Z,21.40
2023-06-17T16:59:27.500Z,20.28
2023-06-17T17:04:30.371Z,18.59
2023-06-17T17:09:34.763Z,19.22
2023-06-17T17:14:37.583Z,19.37
2023-06-17T17:19:40.483Z,19.54
2023-06-17T17:24:45.463Z,20.18
2023-06-17T17:29:48.453Z,20.31
2023-06-17T17:34:51.256Z,20.80
2023-06-17T17:39:55.791Z,20.85
2023-06-17T17:44:58.686Z,21.41
2023-06-17T17:50:01.559Z,21.59
2023-06-17T17:55:06.395Z,21.78
2023-06-17T18:00:10.308Z,21.86
2023-06-17T18:05:15.676Z,21.95
2023-06-17T18:10:20.117Z,22.01
2023-06-17T18:15:23.248Z,21.85
2023-06-17T18:20:26.745Z,22.00
2023-06-17T18:25:30.918Z,22.03
2023-06-17T18:30:33.790Z,22.10
2023-06-17T18:35:36.578Z,22.20
2023-06-17T18:40:40.859Z,22.31
2023-06-17T18:45:43.673Z,22.45
2023-06-17T18:50:46.926Z,22.46
2023-06-17T18:55:51.315Z,22.42
2023-06-17T19:00:55.871Z,22.53
2023-06-17T19:05:58.743Z,22.32
2023-06-17T19:11:03.089Z,22.23
2023-06-17T19:16:06.125Z,22.32
2023-06-17T19:21:10.859Z,22.00
2023-06-17T19:26:15.414Z,21.78
2023-06-17T19:31:18.374Z,21.66
2023-06-17T19:36:21.204Z,21.50
2023-06-17T19:41:25.554Z,21.19
2023-06-17T19:46:29.004Z,21.09
2023-06-17T19:51:34.605Z,20.91
2023-06-17T19:56:38.909Z,20.85
2023-06-17T20:01:43.571Z,20.65
2023-06-17T20:06:46.475Z,20.64
2023-06-17T20:11:51.529Z,20.54
2023-06-17T20:16:54.680Z,20.69
2023-06-17T20:21:57.709Z,20.72
2023-06-17T20:27:02.189Z,20.61
2023-06-17T20:32:05.732Z,20.50
2023-06-17T20:37:08.637Z,20.25
2023-06-17T20:42:13.413Z,20.40
2023-06-17T20:47:19.652Z,20.31
2023-06-17T20:52:22.903Z,20.26
2023-06-17T20:57:27.045Z,20.22
2023-06-17T21:02:30.170Z,20.10
2023-06-17T21:07:33.116Z,20.02
2023-06-17T21:12:38.103Z,19.95
2023-06-17T21:17:43.783Z,19.91
2023-06-17T21:22:46.626Z,19.80
2023-06-17T21:27:50.773Z,20.04
2023-06-17T21:32:53.605Z,20.00
2023-06-17T21:37:56.576Z,20.08
2023-06-17T21:43:00.706Z,20.06
2023-06-17T21:48:03.525Z,20.08
2023-06-17T21:53:06.429Z,19.99
2023-06-17T21:58:10.707Z,19.89
2023-06-17T22:03:14.097Z,19.96
2023-06-17T22:08:20.214Z,19.97
2023-06-17T22:13:26.588Z,19.98
2023-06-17T22:18:29.401Z,19.87
2023-06-17T22:23:32.187Z,19.85
2023-06-17T22:28:36.690Z,19.88
2023-06-17T22:33:39.503Z,19.81
2023-06-17T22:38:42.298Z,19.92
2023-06-17T22:43:46.573Z,19.91
2023-06-17T22:48:49.379Z,19.95
2023-06-17T22:53:52.426Z,19.99
2023-06-17T22:58:56.636Z,19.85
2023-06-17T23:03:59.540Z,19.73
2023-06-17T23:09:02.306Z,19.67
2023-06-17T23:14:09.911Z,19.55
2023-06-17T23:19:12.682Z,19.41
2023-06-17T23:24:15.634Z,19.58
2023-06-17T23:29:19.899Z,19.57
2023-06-17T23:34:22.929Z,19.48
2023-06-17T23:39:25.720Z,19.34
2023-06-17T23:44:29.883Z,19.24
2023-06-17T23:49:35.534Z,19.11
2023-06-17T23:54:38.731Z,18.99
2023-06-17T23:59:43.178Z,19.06
